createdAt,value
2019-03-31T00:00:49.552Z,2.9
2019-03-31T00:01:50.557Z,3.5
2019-03-31T00:02:49.376Z,3.3
2019-03-31T00:03:49.605Z,3.4
2019-03-31T00:04:49.422Z,3.4
2019-03-31T00:05:49.375Z,3.5
2019-03-31T00:06:49.530Z,3.6
2019-03-31T00:07:49.961Z,3.4
2019-03-31T00:08:49.929Z,3.4
2019-03-31T00:09:49.878Z,3.4
2019-03-31T00:10:49.533Z,3.4
2019-03-31T00:11:49.623Z,3.1
2019-03-31T00:12:49.379Z,3.3
2019-03-31T00:13:49.454Z,4.4
2019-03-31T00:14:49.670Z,3.3
2019-03-31T00:15:49.434Z,3.3
2019-03-31T00:16:52.180Z,3.3
2019-03-31T00:17:49.447Z,3.4
2019-03-31T00:18:49.373Z,3.5
2019-03-31T00:19:49.407Z,4.2
2019-03-31T00:20:49.415Z,3.4
2019-03-31T00:21:49.454Z,3.2
2019-03-31T00:22:49.845Z,4.5
2019-03-31T00:23:50.324Z,3.7
2019-03-31T00:24:53.166Z,3.7
2019-03-31T00:25:49.525Z,3.5
2019-03-31T00:26:49.508Z,3.8
2019-03-31T00:27:49.487Z,3.2
2019-03-31T00:28:49.416Z,3.4
2019-03-31T00:29:49.951Z,3.3
2019-03-31T00:30:49.852Z,3.5
2019-03-31T00:31:49.501Z,3.2
2019-03-31T00:32:49.809Z,3.6
2019-03-31T00:33:49.446Z,3.5
2019-03-31T00:34:49.831Z,3.4
2019-03-31T00:35:49.711Z,3.4
2019-03-31T00:36:49.489Z,3.8
2019-03-31T00:37:49.890Z,3.4
2019-03-31T00:38:49.892Z,3.5
2019-03-31T00:39:49.700Z,3.6
2019-03-31T00:40:49.403Z,3.4
2019-03-31T00:41:49.474Z,3.4
2019-03-31T00:42:49.442Z,3.5
2019-03-31T00:43:49.873Z,3.4
2019-03-31T00:44:49.874Z,3.8
2019-03-31T00:45:49.648Z,3.9
2019-03-31T00:46:49.515Z,3.8
2019-03-31T00:47:49.433Z,3.2
2019-03-31T00:48:49.531Z,3.4
2019-03-31T00:49:49.405Z,3.6
2019-03-31T00:50:49.448Z,3.3
2019-03-31T00:51:49.437Z,3.9
2019-03-31T00:52:49.538Z,3.6
2019-03-31T00:53:49.873Z,3.3
2019-03-31T00:54:49.429Z,3.6
2019-03-31T00:55:49.531Z,3.8
2019-03-31T00:56:49.672Z,3.6
2019-03-31T00:57:49.727Z,3.6
2019-03-31T00:58:49.513Z,3.5
2019-03-31T00:59:49.777Z,3.5
2019-03-31T01:00:49.953Z,3.7
2019-03-31T01:01:49.901Z,3.8
2019-03-31T01:02:49.547Z,4.0
2019-03-31T01:03:49.741Z,3.8
2019-03-31T01:04:49.896Z,3.7
2019-03-31T01:05:49.494Z,4.1
2019-03-31T01:06:49.588Z,3.9
2019-03-31T01:07:49.482Z,3.6
2019-03-31T01:08:49.508Z,3.8
2019-03-31T01:09:49.483Z,3.6
2019-03-31T01:10:49.834Z,3.8
2019-03-31T01:11:49.554Z,3.6
2019-03-31T01:12:49.512Z,3.8
2019-03-31T01:13:49.469Z,3.8
2019-03-31T01:14:49.815Z,4.0
2019-03-31T01:15:49.490Z,3.6
2019-03-31T01:16:49.927Z,3.5
2019-03-31T01:17:50.006Z,3.8
2019-03-31T01:18:49.534Z,3.7
2019-03-31T01:19:49.959Z,4.0
2019-03-31T01:20:49.544Z,3.6
2019-03-31T01:21:49.714Z,4.0
2019-03-31T01:22:49.913Z,3.8
2019-03-31T01:23:49.527Z,3.6
2019-03-31T01:24:49.915Z,4.4
2019-03-31T01:25:49.704Z,3.7
2019-03-31T01:26:49.607Z,3.7
2019-03-31T01:27:49.915Z,3.9
2019-03-31T01:28:49.706Z,4.3
2019-03-31T01:29:49.653Z,4.0
2019-03-31T01:30:49.756Z,4.1
2019-03-31T01:31:50.573Z,3.7
2019-03-31T01:32:49.712Z,3.7
2019-03-31T01:33:49.544Z,3.5
2019-03-31T01:34:49.938Z,3.5
2019-03-31T01:35:49.552Z,3.3
2019-03-31T01:36:49.928Z,3.7
2019-03-31T01:37:49.512Z,3.6
2019-03-31T01:38:49.672Z,3.9
2019-03-31T01:39:49.742Z,3.6
2019-03-31T01:40:49.653Z,3.2
2019-03-31T01:41:49.748Z,3.6
2019-03-31T01:42:49.620Z,3.6
2019-03-31T01:43:49.607Z,3.6
2019-03-31T01:44:49.804Z,3.6
2019-03-31T01:45:49.569Z,3.4
2019-03-31T01:46:49.739Z,3.7
2019-03-31T01:47:49.726Z,3.8
2019-03-31T01:48:49.618Z,4.0
2019-03-31T01:49:49.658Z,3.5
2019-03-31T01:50:50.009Z,3.5
2019-03-31T01:51:50.045Z,3.9
2019-03-31T01:52:50.009Z,3.9
2019-03-31T01:53:50.047Z,3.7
2019-03-31T01:54:49.591Z,3.6
2019-03-31T01:55:49.820Z,3.4
2019-03-31T01:56:49.609Z,4.0
2019-03-31T01:57:49.989Z,3.5
2019-03-31T01:58:50.123Z,3.9
2019-03-31T01:59:49.614Z,4.0
2019-03-31T02:00:49.749Z,3.6
2019-03-31T02:02:03.135Z,3.6
2019-03-31T02:02:50.050Z,3.5
2019-03-31T02:03:49.998Z,3.5
2019-03-31T02:04:49.548Z,3.8
2019-03-31T02:05:49.617Z,4.0
2019-03-31T02:06:50.040Z,3.6
2019-03-31T02:07:49.809Z,3.8
2019-03-31T02:08:49.779Z,4.0
2019-03-31T02:09:50.165Z,4.0
2019-03-31T02:10:49.590Z,4.0
2019-03-31T02:11:49.864Z,4.0
2019-03-31T02:12:49.621Z,3.5
2019-03-31T02:13:49.623Z,4.0
2019-03-31T02:14:49.716Z,3.8
2019-03-31T02:15:50.031Z,3.8
2019-03-31T02:16:50.023Z,3.5
2019-03-31T02:17:50.072Z,3.5
2019-03-31T02:18:49.771Z,3.8
2019-03-31T02:19:49.619Z,4.2
2019-03-31T02:20:49.821Z,4.0
2019-03-31T02:21:50.045Z,3.9
2019-03-31T02:22:49.687Z,3.7
2019-03-31T02:23:50.039Z,4.8
2019-03-31T02:24:49.640Z,3.7
2019-03-31T02:25:50.003Z,3.9
2019-03-31T02:26:49.817Z,3.7
2019-03-31T02:27:49.792Z,4.1
2019-03-31T02:28:49.589Z,3.6
2019-03-31T02:29:49.780Z,4.1
2019-03-31T02:30:49.867Z,3.9
2019-03-31T02:31:50.077Z,3.6
2019-03-31T02:32:50.098Z,3.7
2019-03-31T02:33:49.930Z,3.4
2019-03-31T02:34:49.721Z,3.6
2019-03-31T02:35:50.085Z,4.0
2019-03-31T02:36:49.775Z,3.9
2019-03-31T02:37:49.704Z,3.6
2019-03-31T02:38:49.709Z,3.4
2019-03-31T02:39:50.085Z,4.1
2019-03-31T02:40:49.699Z,3.8
2019-03-31T02:41:49.920Z,3.7
2019-03-31T02:42:49.647Z,4.8
2019-03-31T02:43:50.076Z,3.8
2019-03-31T02:44:49.902Z,3.5
2019-03-31T02:45:49.893Z,3.8
2019-03-31T02:46:49.860Z,3.6
2019-03-31T02:47:50.158Z,4.2
2019-03-31T02:48:49.796Z,3.9
2019-03-31T02:49:49.791Z,3.5
2019-03-31T02:50:52.800Z,3.7
2019-03-31T02:51:49.942Z,3.7
2019-03-31T02:52:50.174Z,3.7
2019-03-31T02:53:50.055Z,4.0
2019-03-31T02:54:50.086Z,3.8
2019-03-31T02:55:50.152Z,3.8
2019-03-31T02:56:50.169Z,3.8
2019-03-31T02:57:49.680Z,3.6
2019-03-31T02:58:49.707Z,3.8
2019-03-31T02:59:49.753Z,4.2
2019-03-31T03:00:50.281Z,3.6
2019-03-31T03:01:49.718Z,3.7
2019-03-31T03:02:49.702Z,4.0
2019-03-31T03:03:50.124Z,4.1
2019-03-31T03:04:49.728Z,4.2
2019-03-31T03:05:50.306Z,3.8
2019-03-31T03:06:49.795Z,4.1
2019-03-31T03:07:49.718Z,4.3
2019-03-31T03:08:50.161Z,4.3
2019-03-31T03:09:49.762Z,3.7
2019-03-31T03:10:49.950Z,4.1
2019-03-31T03:11:49.720Z,4.0
2019-03-31T03:12:49.708Z,4.0
2019-03-31T03:13:49.758Z,3.8
2019-03-31T03:14:50.273Z,3.9
2019-03-31T03:15:49.841Z,4.1
2019-03-31T03:16:49.944Z,3.7
2019-03-31T03:17:49.939Z,3.7
2019-03-31T03:18:50.184Z,4.2
2019-03-31T03:19:49.762Z,4.3
2019-03-31T03:20:49.738Z,4.3
2019-03-31T03:21:49.808Z,4.0
2019-03-31T03:22:49.936Z,3.9
2019-03-31T03:23:49.755Z,3.8
2019-03-31T03:24:49.797Z,3.8
2019-03-31T03:25:55.761Z,4.7
2019-03-31T03:26:49.759Z,3.8
2019-03-31T03:27:49.770Z,4.3
2019-03-31T03:28:50.225Z,4.0
2019-03-31T03:29:50.062Z,4.3
2019-03-31T03:30:49.924Z,4.3
2019-03-31T03:31:50.596Z,3.9
2019-03-31T03:33:12.261Z,3.9
2019-03-31T03:33:50.204Z,3.9
2019-03-31T03:34:50.190Z,4.1
2019-03-31T03:35:50.228Z,4.0
2019-03-31T03:36:49.789Z,4.0
2019-03-31T03:37:49.809Z,4.2
2019-03-31T03:38:49.827Z,4.2
2019-03-31T03:39:49.841Z,3.9
2019-03-31T03:40:50.251Z,4.0
2019-03-31T03:41:49.825Z,4.4
2019-03-31T03:42:50.185Z,3.9
2019-03-31T03:43:55.999Z,4.2
2019-03-31T03:44:50.087Z,4.1
2019-03-31T03:45:50.427Z,3.8
2019-03-31T03:46:49.825Z,4.8
2019-03-31T03:47:50.057Z,4.6
2019-03-31T03:48:50.071Z,4.9
2019-03-31T03:49:50.014Z,4.8
2019-03-31T03:50:49.782Z,4.1
2019-03-31T03:51:49.892Z,3.8
2019-03-31T03:52:49.825Z,4.3
2019-03-31T03:53:49.862Z,3.9
2019-03-31T03:54:49.996Z,4.1
2019-03-31T03:55:49.793Z,4.6
2019-03-31T03:56:49.785Z,4.0
2019-03-31T03:57:50.030Z,4.4
2019-03-31T03:58:50.073Z,4.0
2019-03-31T03:59:50.315Z,4.0
2019-03-31T04:00:50.277Z,3.9
2019-03-31T04:01:50.072Z,4.7
2019-03-31T04:02:51.244Z,4.0
2019-03-31T04:03:50.360Z,3.7
2019-03-31T04:04:49.933Z,4.1
2019-03-31T04:05:50.019Z,4.1
2019-03-31T04:06:49.900Z,4.0
2019-03-31T04:07:49.966Z,3.8
2019-03-31T04:08:49.840Z,4.0
2019-03-31T04:09:49.856Z,4.0
2019-03-31T04:10:49.969Z,3.8
2019-03-31T04:11:49.863Z,3.9
2019-03-31T04:12:49.919Z,3.5
2019-03-31T04:13:49.921Z,4.1
2019-03-31T04:14:50.421Z,3.7
2019-03-31T04:15:49.885Z,3.7
2019-03-31T04:16:50.045Z,3.7
2019-03-31T04:17:50.195Z,4.3
2019-03-31T04:18:49.843Z,4.0
2019-03-31T04:19:50.290Z,4.2
2019-03-31T04:20:49.809Z,4.2
2019-03-31T04:21:49.873Z,3.9
2019-03-31T04:22:49.871Z,4.1
2019-03-31T04:23:49.915Z,4.3
2019-03-31T04:24:49.934Z,3.9
2019-03-31T04:25:50.373Z,3.7
2019-03-31T04:26:50.323Z,5.1
2019-03-31T04:27:50.270Z,4.4
2019-03-31T04:28:50.062Z,3.6
2019-03-31T04:29:50.184Z,3.9
2019-03-31T04:30:50.097Z,3.8
2019-03-31T04:31:50.380Z,4.2
2019-03-31T04:32:49.866Z,4.0
2019-03-31T04:33:52.250Z,3.9
2019-03-31T04:34:49.926Z,4.0
2019-03-31T04:35:50.295Z,4.2
2019-03-31T04:36:50.355Z,4.0
2019-03-31T04:37:50.103Z,4.0
2019-03-31T04:38:50.056Z,3.8
2019-03-31T04:39:50.402Z,4.2
2019-03-31T04:40:50.346Z,4.3
2019-03-31T04:41:49.858Z,4.0
2019-03-31T04:42:49.876Z,4.2
2019-03-31T04:43:50.310Z,4.5
2019-03-31T04:44:50.112Z,4.0
2019-03-31T04:45:49.890Z,3.8
2019-03-31T04:46:49.938Z,4.1
2019-03-31T04:47:49.948Z,4.4
2019-03-31T04:48:50.037Z,4.4
2019-03-31T04:49:49.926Z,4.0
2019-03-31T04:50:51.927Z,3.9
2019-03-31T04:51:50.049Z,4.0
2019-03-31T04:52:49.911Z,4.8
2019-03-31T04:53:50.599Z,3.7
2019-03-31T04:54:50.118Z,4.0
2019-03-31T04:55:50.149Z,4.1
2019-03-31T04:56:49.936Z,3.8
2019-03-31T04:57:50.313Z,4.4
2019-03-31T04:58:50.139Z,3.9
2019-03-31T04:59:50.024Z,3.6
2019-03-31T05:00:50.092Z,4.1
2019-03-31T05:01:50.171Z,3.8
2019-03-31T05:02:50.134Z,4.3
2019-03-31T05:04:03.453Z,4.1
2019-03-31T05:04:50.161Z,4.1
2019-03-31T05:05:50.040Z,4.1
2019-03-31T05:06:49.915Z,4.1
2019-03-31T05:07:49.873Z,4.0
2019-03-31T05:08:49.909Z,3.8
2019-03-31T05:09:50.387Z,4.1
2019-03-31T05:10:49.933Z,3.9
2019-03-31T05:11:50.307Z,4.1
2019-03-31T05:12:50.121Z,3.9
2019-03-31T05:13:49.922Z,4.2
2019-03-31T05:14:49.993Z,3.7
2019-03-31T05:15:50.046Z,3.8
2019-03-31T05:16:50.138Z,4.3
2019-03-31T05:17:50.145Z,4.0
2019-03-31T05:18:49.921Z,4.1
2019-03-31T05:19:49.948Z,3.6
2019-03-31T05:20:49.970Z,3.7
2019-03-31T05:21:49.966Z,3.6
2019-03-31T05:22:52.693Z,3.4
2019-03-31T05:23:49.964Z,3.6
2019-03-31T05:24:49.956Z,3.8
2019-03-31T05:25:50.280Z,4.1
2019-03-31T05:26:49.951Z,3.8
2019-03-31T05:27:49.919Z,4.1
2019-03-31T05:28:50.006Z,3.9
2019-03-31T05:29:50.217Z,4.1
2019-03-31T05:30:49.940Z,3.7
2019-03-31T05:31:50.352Z,4.0
2019-03-31T05:32:50.308Z,3.4
2019-03-31T05:33:50.633Z,3.5
2019-03-31T05:34:50.384Z,3.7
2019-03-31T05:35:50.016Z,4.2
2019-03-31T05:36:50.395Z,3.6
2019-03-31T05:37:51.173Z,3.7
2019-03-31T05:38:50.143Z,3.6
2019-03-31T05:39:50.401Z,3.7
2019-03-31T05:40:49.980Z,3.5
2019-03-31T05:41:50.309Z,3.8
2019-03-31T05:42:50.074Z,4.1
2019-03-31T05:43:50.123Z,3.7
2019-03-31T05:44:50.390Z,3.7
2019-03-31T05:45:52.336Z,3.5
2019-03-31T05:46:50.405Z,4.2
2019-03-31T05:47:50.014Z,3.5
2019-03-31T05:48:50.224Z,3.9
2019-03-31T05:49:50.370Z,3.9
2019-03-31T05:50:50.186Z,3.8
2019-03-31T05:51:50.121Z,4.2
2019-03-31T05:52:50.391Z,3.7
2019-03-31T05:53:49.939Z,3.3
2019-03-31T05:54:50.603Z,3.6
2019-03-31T05:55:50.009Z,3.4
2019-03-31T05:56:50.315Z,3.8
2019-03-31T05:57:50.200Z,3.8
2019-03-31T05:58:50.232Z,3.6
2019-03-31T05:59:50.065Z,3.8
2019-03-31T06:00:50.501Z,3.9
2019-03-31T06:01:50.421Z,3.6
2019-03-31T06:02:50.157Z,3.9
2019-03-31T06:03:50.149Z,3.6
2019-03-31T06:04:50.053Z,3.4
2019-03-31T06:05:50.014Z,3.6
2019-03-31T06:06:50.041Z,3.5
2019-03-31T06:07:50.147Z,3.6
2019-03-31T06:08:50.012Z,3.5
2019-03-31T06:09:50.089Z,3.8
2019-03-31T06:10:50.004Z,3.6
2019-03-31T06:11:53.116Z,4.3
2019-03-31T06:12:50.386Z,3.5
2019-03-31T06:13:49.993Z,3.7
2019-03-31T06:14:50.088Z,3.5
2019-03-31T06:15:50.218Z,3.7
2019-03-31T06:16:50.432Z,3.7
2019-03-31T06:17:50.081Z,3.6
2019-03-31T06:18:50.485Z,3.7
2019-03-31T06:19:50.233Z,3.6
2019-03-31T06:20:50.190Z,3.5
2019-03-31T06:21:50.087Z,4.0
2019-03-31T06:22:50.157Z,4.0
2019-03-31T06:23:50.028Z,3.4
2019-03-31T06:24:50.108Z,3.3
2019-03-31T06:25:50.440Z,3.4
2019-03-31T06:26:50.245Z,3.8
2019-03-31T06:27:49.972Z,3.8
2019-03-31T06:38:56.818Z,3.6
2019-03-31T06:39:57.606Z,3.8
2019-03-31T06:40:57.873Z,3.6
2019-03-31T06:41:58.129Z,3.5
2019-03-31T06:42:57.660Z,3.3
2019-03-31T06:43:57.869Z,3.5
2019-03-31T06:44:57.972Z,3.5
2019-03-31T06:45:57.782Z,3.5
2019-03-31T06:46:57.702Z,3.5
2019-03-31T06:47:58.108Z,3.6
2019-03-31T06:50:10.789Z,3.4
2019-03-31T06:51:10.609Z,3.4
2019-03-31T06:52:10.332Z,3.5
2019-03-31T06:53:10.581Z,3.3
2019-03-31T06:54:10.393Z,3.7
2019-03-31T06:55:10.375Z,3.4
2019-03-31T06:56:10.348Z,3.7
2019-03-31T06:57:10.834Z,3.3
2019-03-31T06:58:10.565Z,3.4
2019-03-31T06:59:10.491Z,3.4
2019-03-31T07:00:10.439Z,3.4
2019-03-31T07:01:10.578Z,3.2
2019-03-31T07:02:10.356Z,3.2
2019-03-31T07:03:10.795Z,3.6
2019-03-31T07:04:10.567Z,3.6
2019-03-31T07:05:10.413Z,3.3
2019-03-31T07:06:10.477Z,3.2
2019-03-31T07:07:10.796Z,3.5
2019-03-31T07:08:11.277Z,3.7
2019-03-31T07:09:10.481Z,3.5
2019-03-31T07:10:10.790Z,3.8
2019-03-31T07:11:10.654Z,3.3
2019-03-31T07:12:10.451Z,4.5
2019-03-31T07:13:10.773Z,3.3
2019-03-31T07:14:10.788Z,3.4
2019-03-31T07:15:10.831Z,3.2
2019-03-31T07:16:10.644Z,3.4
2019-03-31T07:17:10.837Z,5.1
2019-03-31T07:18:10.669Z,4.0
2019-03-31T07:19:12.506Z,4.1
2019-03-31T07:20:10.812Z,6.1
2019-03-31T07:21:10.869Z,4.9
2019-03-31T07:22:10.470Z,5.1
2019-03-31T07:23:10.432Z,5.0
2019-03-31T07:24:10.868Z,5.9
2019-03-31T07:25:10.468Z,4.7
2019-03-31T07:26:11.161Z,3.5
2019-03-31T07:27:10.794Z,4.9
2019-03-31T07:28:10.852Z,4.7
2019-03-31T07:29:10.854Z,4.2
2019-03-31T07:30:11.571Z,3.3
2019-03-31T07:31:10.460Z,3.6
2019-03-31T07:32:10.447Z,5.2
2019-03-31T07:33:10.849Z,3.7
2019-03-31T07:34:10.984Z,5.2
2019-03-31T07:35:17.905Z,4.9
2019-03-31T07:36:10.539Z,3.7
2019-03-31T07:37:10.696Z,4.8
2019-03-31T07:38:10.619Z,4.2
2019-03-31T07:39:10.929Z,3.8
2019-03-31T07:40:10.602Z,4.5
2019-03-31T07:41:12.572Z,3.9
2019-03-31T07:42:10.895Z,4.1
2019-03-31T07:43:10.788Z,3.8
2019-03-31T07:44:10.935Z,5.5
2019-03-31T07:45:10.492Z,3.7
2019-03-31T07:46:10.543Z,4.0
2019-03-31T07:47:10.904Z,4.1
2019-03-31T07:48:10.521Z,4.6
2019-03-31T07:49:10.858Z,5.6
2019-03-31T07:50:10.724Z,5.7
2019-03-31T07:51:10.845Z,4.0
2019-03-31T07:52:10.847Z,3.9
2019-03-31T07:53:10.504Z,3.7
2019-03-31T07:54:10.927Z,4.3
2019-03-31T07:55:10.450Z,4.1
2019-03-31T07:56:11.162Z,3.7
2019-03-31T07:57:10.548Z,4.3
2019-03-31T07:58:10.486Z,3.9
2019-03-31T07:59:10.760Z,3.6
2019-03-31T08:00:10.711Z,3.7
2019-03-31T08:01:10.723Z,3.8
2019-03-31T08:02:10.496Z,3.8
2019-03-31T08:04:23.153Z,3.8
2019-03-31T08:05:32.132Z,3.4
2019-03-31T08:06:23.586Z,3.5
2019-03-31T08:07:23.574Z,3.8
2019-03-31T08:08:23.123Z,4.6
2019-03-31T08:09:23.530Z,4.6
2019-03-31T08:10:23.278Z,3.5
2019-03-31T08:11:23.309Z,3.5
2019-03-31T08:12:23.150Z,3.9
2019-03-31T08:13:23.628Z,3.6
2019-03-31T08:14:23.193Z,3.9
2019-03-31T08:15:23.491Z,3.7
2019-03-31T08:16:23.399Z,3.3
2019-03-31T08:17:23.209Z,4.1
2019-03-31T08:18:23.205Z,3.7
2019-03-31T08:19:23.628Z,3.5
2019-03-31T08:20:23.426Z,3.3
2019-03-31T08:21:23.188Z,3.4
2019-03-31T08:22:23.463Z,3.8
2019-03-31T08:23:23.693Z,4.3
2019-03-31T08:24:23.625Z,3.6
2019-03-31T08:25:23.298Z,3.6
2019-03-31T08:26:23.591Z,3.9
2019-03-31T08:27:23.314Z,3.2
2019-03-31T08:28:23.221Z,3.4
2019-03-31T08:29:23.677Z,3.4
2019-03-31T08:30:23.287Z,11.7
2019-03-31T08:31:23.623Z,11.5
2019-03-31T08:32:23.335Z,9.5
2019-03-31T08:33:23.305Z,8.3
2019-03-31T08:34:23.643Z,8.3
2019-03-31T08:35:23.231Z,15.0
2019-03-31T08:36:23.409Z,14.1
2019-03-31T08:37:23.684Z,10.5
2019-03-31T08:38:39.608Z,9.2
2019-03-31T08:39:23.670Z,7.5
2019-03-31T08:40:23.261Z,10.0
2019-03-31T08:41:23.266Z,7.8
2019-03-31T08:42:23.659Z,7.1
2019-03-31T08:43:23.689Z,6.7
2019-03-31T08:44:23.622Z,8.7
2019-03-31T08:45:23.237Z,6.6
2019-03-31T08:46:23.760Z,5.9
2019-03-31T08:47:23.793Z,6.2
2019-03-31T08:48:23.244Z,8.1
2019-03-31T08:49:23.276Z,7.4
2019-03-31T08:50:23.276Z,6.6
2019-03-31T08:51:23.487Z,6.4
2019-03-31T08:52:23.300Z,6.1
2019-03-31T08:53:23.271Z,8.3
2019-03-31T08:54:23.428Z,6.6
2019-03-31T08:55:23.649Z,6.4
2019-03-31T08:56:23.265Z,6.3
2019-03-31T08:57:23.707Z,6.7
2019-03-31T09:04:55.835Z,7.0
2019-03-31T09:05:04.599Z,6.9
2019-03-31T09:06:04.691Z,6.0
2019-03-31T09:07:04.914Z,5.5
2019-03-31T09:08:04.482Z,6.7
2019-03-31T09:09:04.646Z,5.7
2019-03-31T09:10:04.569Z,5.8
2019-03-31T09:11:04.743Z,5.6
2019-03-31T09:12:04.573Z,6.6
2019-03-31T09:13:04.629Z,5.8
2019-03-31T09:14:04.574Z,6.1
2019-03-31T09:15:04.966Z,5.5
2019-03-31T09:16:04.777Z,5.9
2019-03-31T09:17:04.968Z,5.5
2019-03-31T09:18:04.965Z,5.0
2019-03-31T09:19:04.617Z,6.5
2019-03-31T09:20:04.623Z,7.3
2019-03-31T09:21:04.531Z,5.0
2019-03-31T09:22:05.188Z,5.6
2019-03-31T09:23:05.239Z,6.7
2019-03-31T09:24:04.563Z,6.9
2019-03-31T09:25:04.844Z,7.0
2019-03-31T09:26:04.791Z,6.2
2019-03-31T09:27:05.010Z,5.4
2019-03-31T09:28:04.612Z,5.9
2019-03-31T09:29:05.012Z,7.5
2019-03-31T09:30:04.814Z,6.3
2019-03-31T09:31:05.021Z,5.0
2019-03-31T09:32:05.027Z,5.8
2019-03-31T09:33:04.965Z,6.0
2019-03-31T09:34:05.035Z,6.0
2019-03-31T09:35:04.583Z,7.1
2019-03-31T09:36:15.056Z,6.0
2019-03-31T09:37:04.619Z,7.2
2019-03-31T09:38:05.623Z,7.2
2019-03-31T09:39:04.987Z,6.1
2019-03-31T09:40:05.185Z,6.8
2019-03-31T09:41:05.208Z,5.3
2019-03-31T09:42:05.417Z,5.7
2019-03-31T09:43:05.186Z,5.8
2019-03-31T09:44:05.208Z,6.5
2019-03-31T09:45:05.278Z,5.1
2019-03-31T09:46:05.122Z,6.3
2019-03-31T09:47:05.522Z,7.6
2019-03-31T09:48:04.796Z,5.5
2019-03-31T09:49:05.030Z,4.6
2019-03-31T09:50:04.649Z,4.1
2019-03-31T09:51:04.884Z,5.9
2019-03-31T09:52:04.615Z,5.3
2019-03-31T09:53:05.420Z,6.2
2019-03-31T09:54:05.093Z,8.2
2019-03-31T09:55:05.483Z,6.0
2019-03-31T09:56:04.873Z,4.8
2019-03-31T09:57:04.649Z,5.1
2019-03-31T09:58:04.838Z,5.3
2019-03-31T09:59:05.145Z,5.6
2019-03-31T10:00:05.191Z,6.4
2019-03-31T10:01:07.795Z,5.6
2019-03-31T10:02:04.656Z,5.1
2019-03-31T10:03:05.144Z,7.3
2019-03-31T10:04:04.674Z,6.2
2019-03-31T10:05:04.673Z,5.6
2019-03-31T10:06:10.742Z,10.1
2019-03-31T10:07:05.666Z,11.4
2019-03-31T10:08:04.952Z,9.6
2019-03-31T10:09:04.770Z,12.0
2019-03-31T10:10:04.769Z,13.3
2019-03-31T10:11:04.980Z,10.5
2019-03-31T10:12:05.086Z,12.3
2019-03-31T10:13:05.101Z,12.2
2019-03-31T10:14:04.722Z,13.5
2019-03-31T10:15:04.710Z,11.9
2019-03-31T10:16:05.126Z,12.3
2019-03-31T10:17:04.668Z,12.6
2019-03-31T10:18:04.670Z,14.3
2019-03-31T10:19:04.637Z,12.4
2019-03-31T10:20:05.078Z,11.1
2019-03-31T10:21:05.804Z,12.7
2019-03-31T10:22:04.687Z,10.4
2019-03-31T10:23:04.742Z,9.4
2019-03-31T10:24:05.236Z,8.9
2019-03-31T10:25:04.992Z,8.7
2019-03-31T10:26:04.748Z,8.2
2019-03-31T10:27:05.131Z,8.2
2019-03-31T10:28:04.947Z,7.9
2019-03-31T10:29:05.192Z,8.1
2019-03-31T10:30:04.957Z,6.4
2019-03-31T10:31:04.765Z,6.3
2019-03-31T10:32:04.756Z,5.8
2019-03-31T10:33:07.042Z,5.8
2019-03-31T10:34:04.927Z,5.4
2019-03-31T10:35:05.206Z,5.8
2019-03-31T10:36:04.938Z,5.9
2019-03-31T10:37:04.911Z,6.9
2019-03-31T10:38:04.720Z,11.2
2019-03-31T10:39:04.906Z,9.6
2019-03-31T10:40:04.760Z,6.2
2019-03-31T10:41:04.940Z,8.8
2019-03-31T10:42:04.758Z,6.4
2019-03-31T10:43:06.796Z,8.5
2019-03-31T10:44:04.721Z,8.7
2019-03-31T10:45:04.845Z,6.6
2019-03-31T10:46:04.791Z,6.2
2019-03-31T10:47:04.930Z,5.3
2019-03-31T10:48:19.003Z,8.7
2019-03-31T10:49:04.767Z,6.4
2019-03-31T10:50:04.921Z,4.7
2019-03-31T10:51:04.778Z,6.4
2019-03-31T10:52:04.917Z,4.5
2019-03-31T10:53:05.261Z,5.7
2019-03-31T10:54:05.294Z,5.2
2019-03-31T10:55:04.739Z,6.7
2019-03-31T10:56:05.280Z,4.4
2019-03-31T10:57:04.697Z,3.5
2019-03-31T10:58:05.211Z,6.3
2019-03-31T10:59:05.393Z,5.4
2019-03-31T11:00:04.942Z,5.6
2019-03-31T11:01:05.176Z,5.8
2019-03-31T11:02:04.901Z,5.7
2019-03-31T11:03:05.831Z,6.9
2019-03-31T11:04:05.160Z,5.8
2019-03-31T11:05:05.073Z,4.9
2019-03-31T11:06:04.989Z,7.3
2019-03-31T11:07:05.301Z,5.6
2019-03-31T11:08:04.833Z,7.4
2019-03-31T11:09:04.943Z,5.6
2019-03-31T11:10:04.965Z,5.0
2019-03-31T11:11:04.778Z,4.1
2019-03-31T11:12:04.798Z,4.5
2019-03-31T11:13:05.040Z,4.0
2019-03-31T11:14:04.815Z,4.6
2019-03-31T11:15:04.957Z,3.3
2019-03-31T11:16:04.769Z,3.7
2019-03-31T11:17:04.844Z,5.7
2019-03-31T11:18:04.814Z,6.3
2019-03-31T11:19:04.892Z,4.6
2019-03-31T11:20:04.809Z,4.6
2019-03-31T11:21:04.851Z,6.2
2019-03-31T11:22:04.824Z,3.5
2019-03-31T11:23:04.958Z,4.0
2019-03-31T11:24:04.794Z,4.5
2019-03-31T11:25:04.792Z,3.1
2019-03-31T11:26:04.817Z,3.7
2019-03-31T11:27:04.980Z,4.2
2019-03-31T11:28:04.802Z,4.5
2019-03-31T11:29:04.786Z,4.0
2019-03-31T11:30:05.228Z,3.7
2019-03-31T11:31:04.788Z,3.2
2019-03-31T11:32:04.785Z,4.2
2019-03-31T11:33:07.284Z,2.9
2019-03-31T11:34:04.798Z,3.4
2019-03-31T11:35:04.882Z,3.2
2019-03-31T11:36:04.819Z,2.9
2019-03-31T11:37:12.922Z,4.3
2019-03-31T11:38:04.903Z,3.7
2019-03-31T11:39:05.398Z,4.0
2019-03-31T11:40:04.810Z,2.9
2019-03-31T11:41:05.079Z,3.7
2019-03-31T11:42:04.989Z,3.7
2019-03-31T11:43:05.325Z,4.5
2019-03-31T11:44:04.843Z,3.5
2019-03-31T11:45:04.845Z,4.6
2019-03-31T11:46:05.046Z,2.8
2019-03-31T11:47:04.849Z,3.8
2019-03-31T11:48:04.883Z,3.5
2019-03-31T11:49:05.058Z,2.6
2019-03-31T11:50:04.845Z,2.7
2019-03-31T11:51:05.104Z,2.9
2019-03-31T11:52:05.258Z,3.8
2019-03-31T11:53:04.874Z,3.1
2019-03-31T11:54:05.242Z,3.8
2019-03-31T11:55:04.851Z,3.7
2019-03-31T11:56:05.379Z,3.0
2019-03-31T11:57:04.891Z,2.3
2019-03-31T11:58:07.018Z,2.7
2019-03-31T11:59:04.904Z,3.7
2019-03-31T12:00:04.976Z,2.4
2019-03-31T12:01:05.084Z,3.7
2019-03-31T12:02:04.896Z,2.9
2019-03-31T12:03:05.327Z,2.4
2019-03-31T12:04:05.324Z,2.4
2019-03-31T12:05:06.258Z,2.5
2019-03-31T12:06:05.337Z,2.5
2019-03-31T12:07:05.246Z,3.6
2019-03-31T12:08:05.292Z,2.5
2019-03-31T12:09:05.242Z,3.9
2019-03-31T12:10:05.074Z,4.3
2019-03-31T12:11:04.990Z,3.5
2019-03-31T12:12:05.016Z,3.6
2019-03-31T12:13:04.929Z,3.0
2019-03-31T12:14:04.913Z,3.4
2019-03-31T12:15:05.222Z,4.7
2019-03-31T12:16:04.945Z,3.9
2019-03-31T12:17:05.059Z,3.5
2019-03-31T12:18:06.060Z,4.6
2019-03-31T12:19:05.363Z,5.4
2019-03-31T12:20:05.332Z,3.6
2019-03-31T12:21:04.971Z,3.2
2019-03-31T12:22:04.873Z,3.0
2019-03-31T12:23:05.154Z,3.3
2019-03-31T12:24:04.951Z,3.5
2019-03-31T12:25:05.412Z,3.7
2019-03-31T12:26:04.977Z,3.4
2019-03-31T12:27:05.344Z,4.4
2019-03-31T12:28:05.310Z,2.7
2019-03-31T12:29:05.124Z,3.8
2019-03-31T12:30:04.919Z,3.2
2019-03-31T12:31:04.990Z,4.4
2019-03-31T12:32:05.347Z,3.9
2019-03-31T12:33:04.879Z,3.6
2019-03-31T12:34:05.354Z,2.8
2019-03-31T12:35:04.988Z,2.7
2019-03-31T12:36:05.167Z,2.4
2019-03-31T12:37:05.115Z,2.5
2019-03-31T12:38:05.417Z,2.3
2019-03-31T12:39:05.358Z,2.7
2019-03-31T12:40:05.366Z,3.3
2019-03-31T12:41:05.143Z,3.3
2019-03-31T12:42:05.404Z,3.0
2019-03-31T12:43:04.977Z,2.3
2019-03-31T12:44:04.943Z,2.2
2019-03-31T12:45:04.924Z,2.6
2019-03-31T12:46:05.007Z,2.3
2019-03-31T12:47:04.928Z,3.0
2019-03-31T12:48:05.429Z,2.3
2019-03-31T12:49:05.207Z,2.7
2019-03-31T12:50:04.960Z,3.1
2019-03-31T12:51:05.189Z,4.2
2019-03-31T12:52:04.944Z,2.5
2019-03-31T12:53:05.158Z,2.6
2019-03-31T12:54:05.507Z,1.9
2019-03-31T12:55:04.956Z,3.5
2019-03-31T12:56:05.194Z,3.3
2019-03-31T12:57:05.462Z,1.9
2019-03-31T12:58:04.984Z,1.9
2019-03-31T12:59:05.013Z,2.8
2019-03-31T13:00:05.446Z,2.3
2019-03-31T13:01:05.070Z,2.4
2019-03-31T13:02:05.006Z,2.8
2019-03-31T13:03:05.152Z,2.7
2019-03-31T13:04:05.441Z,2.3
2019-03-31T13:05:05.038Z,2.2
2019-03-31T13:06:05.175Z,1.9
2019-03-31T13:07:05.053Z,2.1
2019-03-31T13:08:05.036Z,2.3
2019-03-31T13:09:05.195Z,2.4
2019-03-31T13:10:05.049Z,2.5
2019-03-31T13:11:05.850Z,2.2
2019-03-31T13:12:04.995Z,2.6
2019-03-31T13:13:05.065Z,1.9
2019-03-31T13:14:06.030Z,1.7
2019-03-31T13:15:05.839Z,1.7
2019-03-31T13:16:05.375Z,2.1
2019-03-31T13:17:05.454Z,2.2
2019-03-31T13:18:05.203Z,1.8
2019-03-31T13:19:05.418Z,3.0
2019-03-31T13:20:05.141Z,2.1
2019-03-31T13:21:05.584Z,3.0
2019-03-31T13:22:05.279Z,2.4
2019-03-31T13:23:05.287Z,2.4
2019-03-31T13:24:05.301Z,3.3
2019-03-31T13:25:05.110Z,2.3
2019-03-31T13:26:05.227Z,2.4
2019-03-31T13:27:05.420Z,2.1
2019-03-31T13:28:05.927Z,2.7
2019-03-31T13:29:05.262Z,2.4
2019-03-31T13:30:05.191Z,2.6
2019-03-31T13:31:05.421Z,2.3
2019-03-31T13:32:05.102Z,2.1
2019-03-31T13:33:05.347Z,2.1
2019-03-31T13:34:06.060Z,2.3
2019-03-31T13:35:08.251Z,2.2
2019-03-31T13:36:05.070Z,3.0
2019-03-31T13:37:05.405Z,2.3
2019-03-31T13:38:10.867Z,2.5
2019-03-31T13:39:05.237Z,2.4
2019-03-31T13:40:05.091Z,3.5
2019-03-31T13:41:05.160Z,2.7
2019-03-31T13:42:05.049Z,4.1
2019-03-31T13:43:06.453Z,2.6
2019-03-31T13:44:05.232Z,2.8
2019-03-31T13:45:05.156Z,2.4
2019-03-31T13:46:05.249Z,2.5
2019-03-31T13:47:05.656Z,2.0
2019-03-31T13:48:05.480Z,2.5
2019-03-31T13:49:05.093Z,2.5
2019-03-31T13:50:05.103Z,2.5
2019-03-31T13:51:05.160Z,2.2
2019-03-31T13:52:05.313Z,2.6
2019-03-31T13:53:05.111Z,2.3
2019-03-31T13:54:05.130Z,3.1
2019-03-31T13:55:05.107Z,5.1
2019-03-31T13:56:05.063Z,4.6
2019-03-31T13:57:06.152Z,4.4
2019-03-31T13:58:07.669Z,5.0
2019-03-31T13:59:05.102Z,6.6
2019-03-31T14:00:05.183Z,4.8
2019-03-31T14:01:05.167Z,4.4
2019-03-31T14:02:05.353Z,7.6
2019-03-31T14:03:05.413Z,5.9
2019-03-31T14:04:05.175Z,5.4